Quick Links (Output Below):   Max & Min Temps   /   Climate Reports   /   Zone Forecasts
River Forecasts   /   Forestry Forecasts   /   Aviation Forecasts   /   Radars   /   Features

Terminal Aerodrome Forecast (Highfill)

Pick a Site:
Arkadelphia | El Dorado | Fayetteville | Fort Smith | Harrison | Highfill | Hot Springs | Jonesboro
Little Rock | Monticello | Mountain Home | Pine Bluff | Texarkana
 Forecast 

KXNA 311122Z 3112/0112 VRB03KT 2SM BR SCT250
     FM311400 VRB03KT P6SM SCT050
     FM311600 02004KT P6SM VCTS SCT050CB
      TEMPO 3120/3124 3SM -TSRA BKN030CB
     FM010200 02004KT P6SM VCSH BKN050
      TEMPO 0108/0112 4SM BR=


 Latest METARs (Observations) 
How to Decode METARs
14Z KXNA 311353Z 06003KT 8SM CLR 25/23 A3010 RMK AO2 LTG DSNT W AND NW
         SLP177 T02500228
         
13Z KXNA 311253Z 00000KT 4SM BR CLR 23/22 A3008 RMK AO2 SLP172
         T02280222
         
12Z KXNA 311153Z 00000KT 4SM BR CLR 22/22 A3008 RMK AO2 SLP168
         T02220222 10233 20206 56003
         
11Z KXNA 311053Z 35003KT 2SM BR CLR 21/21 A3008 RMK AO2 SLP168
         T02110211
         
10Z KXNA 310953Z AUTO 00000KT 8SM CLR 22/22 A3008 RMK AO2 SLP166
         T02220217
         
09Z KXNA 310853Z AUTO 00000KT 9SM CLR 23/22 A3009 RMK AO2 SLP169
         T02280222 58002
         
08Z KXNA 310753Z AUTO 03003KT 10SM CLR 23/22 A3009 RMK AO2 SLP171
         T02330222
         
07Z KXNA 310653Z AUTO 01005KT 9SM CLR 23/22 A3009 RMK AO2 SLP172
         T02280217
         
06Z KXNA 310553Z AUTO 35004KT 10SM CLR 23/22 A3009 RMK AO2 SLP173
         T02330217 10306 20228 403440211 50003
         
05Z KXNA 310453Z AUTO 34004KT 10SM CLR 23/22 A3010 RMK AO2 SLP174
         T02330222
         
***** Today's Observations (Above) *****


Back to Main Page
http://www.srh.noaa.gov/lzk/qfcst.php

USA.gov is the U.S. government's official web portal to all federal, state and local government web resources and services.